sim
Sign-in with your pilot id or email,
or register
Callsign
Passwort

Schedule Details

Flight Number: DLH2668 (1)
Departure: Munich Airport (EDDM) at 12:20
Arrival: Malaga Costa Del Sol Airport (LEMG) at 15:15
Route: Lufthansa Passenger Schedule. Enter filed route here before submitting Pirep.

Weather Information
Getting current METAR information for EDDM 010150Z 08001KT 1200 0500NE R08L/0450N R08R/1000N BCFG NSC 04/04 Q1010 BECMG 0600 FG
Getting current METAR information for LEMG 010200Z 30005KT CAVOK 18/15 Q1013 NOSIG

Schedule Frequency

Route Map